Time;durP1;ratioP1;P1;durP2;ratioP2;P2;SDS_P1;SDS_P2;PMS_P1;PMS_P2;Temp;Humidity;BMP_temperature;BMP_pressure;BME280_temperature;BME280_humidity;BME280_pressure;Samples;Min_cycle;Max_cycle;Signal;HPM_P1;HPM_P2
2022/08/14 00:00:11;;;;;;;12.05;8.70;;;19.00;99.90;;;;;;6155036;23;20009;-84
2022/08/14 00:02:37;;;;;;;12.48;9.23;;;19.00;99.90;;;;;;6156784;23;20013;-84
2022/08/14 00:05:04;;;;;;;12.48;9.23;;;19.00;99.90;;;;;;6154580;23;20002;-84
2022/08/14 00:07:30;;;;;;;12.02;8.77;;;19.00;99.90;;;;;;6129957;23;20418;-84
2022/08/14 00:09:56;;;;;;;9.82;8.48;;;18.90;99.90;;;;;;6129881;23;20040;-84
2022/08/14 00:12:22;;;;;;;11.23;9.23;;;18.90;99.90;;;;;;6129872;23;20596;-84
2022/08/14 00:14:48;;;;;;;10.98;8.88;;;18.90;99.90;;;;;;6129672;23;20010;-84
2022/08/14 00:17:14;;;;;;;12.15;9.60;;;18.90;99.90;;;;;;6129711;23;20013;-83
2022/08/14 00:19:39;;;;;;;15.13;9.32;;;18.80;99.90;;;;;;6154090;23;20538;-84
2022/08/14 00:22:05;;;;;;;13.02;9.88;;;18.80;99.90;;;;;;6128369;23;20097;-84
2022/08/14 00:24:31;;;;;;;13.73;10.27;;;18.80;99.90;;;;;;6153367;23;20020;-84
2022/08/14 00:26:57;;;;;;;15.68;10.15;;;18.70;99.90;;;;;;6129406;23;20012;-84
2022/08/14 00:29:23;;;;;;;11.93;9.90;;;18.70;99.90;;;;;;6129390;23;20338;-84
2022/08/14 00:31:49;;;;;;;16.42;9.98;;;18.70;99.90;;;;;;6129284;23;20017;-84
2022/08/14 00:34:15;;;;;;;13.27;10.65;;;18.70;99.90;;;;;;6129115;23;20018;-84
2022/08/14 00:36:40;;;;;;;14.35;9.90;;;18.60;99.90;;;;;;6153936;23;20342;-84
2022/08/14 00:39:06;;;;;;;12.18;10.45;;;18.50;99.90;;;;;;6129058;23;20045;-84
2022/08/14 00:41:32;;;;;;;11.60;9.63;;;18.50;99.90;;;;;;6153549;23;20681;-84
2022/08/14 00:43:59;;;;;;;11.43;9.95;;;18.50;99.90;;;;;;6128868;23;20470;-84
2022/08/14 00:46:25;;;;;;;11.68;9.82;;;18.50;99.90;;;;;;6129422;23;20012;-84
2022/08/14 00:48:50;;;;;;;16.63;10.57;;;18.40;99.90;;;;;;6129367;23;20103;-84
2022/08/14 00:51:17;;;;;;;13.20;10.90;;;18.40;99.90;;;;;;6153491;23;20014;-84
2022/08/14 00:53:43;;;;;;;12.13;10.40;;;18.40;99.90;;;;;;6128563;23;20025;-84
2022/08/14 00:56:09;;;;;;;11.90;10.48;;;18.30;99.90;;;;;;6128852;23;20017;-84
2022/08/14 00:58:36;;;;;;;12.25;10.73;;;18.30;99.90;;;;;;6152868;23;20062;-84
2022/08/14 01:01:08;;;;;;;12.63;10.27;;;18.30;99.90;;;;;;6128802;23;20068;-84
2022/08/14 01:04:12;;;;;;;15.68;9.98;;;18.30;99.90;;;;;;6128685;23;20342;-84
2022/08/14 01:06:38;;;;;;;12.00;10.68;;;18.20;99.90;;;;;;6154169;23;20002;-84
2022/08/14 01:09:03;;;;;;;14.10;10.63;;;18.10;99.90;;;;;;6129793;23;20008;-84
2022/08/14 01:11:30;;;;;;;16.23;11.00;;;18.10;99.90;;;;;;6130001;23;20434;-84
2022/08/14 01:13:59;;;;;;;15.70;11.23;;;18.10;99.90;;;;;;6129542;23;20084;-84
2022/08/14 01:16:26;;;;;;;13.77;11.35;;;18.10;99.90;;;;;;6129425;23;20013;-84
2022/08/14 01:21:38;;;;;;;16.48;11.52;;;18.00;99.90;;;;;;6153840;23;20079;-84
2022/08/14 01:24:09;;;;;;;14.63;11.25;;;18.00;99.90;;;;;;6129378;23;20718;-84
2022/08/14 01:26:36;;;;;;;13.07;10.20;;;18.00;99.90;;;;;;6154490;23;20001;-84
2022/08/14 01:29:04;;;;;;;16.50;11.52;;;18.00;99.90;;;;;;6129790;23;20009;-84
2022/08/14 01:31:33;;;;;;;16.17;11.23;;;18.00;99.90;;;;;;6129144;23;20342;-84
2022/08/14 01:34:02;;;;;;;16.75;11.90;;;18.00;99.90;;;;;;6129318;23;20006;-84
2022/08/14 01:36:35;;;;;;;15.93;11.23;;;17.90;99.90;;;;;;6129424;23;20386;-84
2022/08/14 01:39:11;;;;;;;13.43;11.60;;;17.90;99.90;;;;;;6129786;23;20044;-84
2022/08/14 01:41:37;;;;;;;12.18;10.82;;;17.90;99.90;;;;;;6128940;23;20044;-84
2022/08/14 01:44:11;;;;;;;15.80;11.48;;;17.90;99.90;;;;;;6129246;23;20707;-84
2022/08/14 01:46:39;;;;;;;14.73;11.80;;;17.90;99.90;;;;;;6129645;23;20009;-84
2022/08/14 01:49:07;;;;;;;14.45;11.30;;;17.90;99.90;;;;;;6129762;23;20020;-84
2022/08/14 01:51:34;;;;;;;16.52;12.13;;;17.90;99.90;;;;;;6154113;23;20017;-84
2022/08/14 01:54:05;;;;;;;13.43;11.15;;;17.80;99.90;;;;;;6128852;23;20036;-84
2022/08/14 01:56:39;;;;;;;13.02;10.45;;;17.80;99.90;;;;;;6131726;23;20048;-84
2022/08/14 01:59:08;;;;;;;15.10;10.93;;;17.70;99.90;;;;;;6131584;23;20009;-84
2022/08/14 02:01:34;;;;;;;14.10;10.50;;;17.80;99.90;;;;;;6156034;23;20009;-84
2022/08/14 02:04:02;;;;;;;14.20;11.05;;;17.80;99.90;;;;;;6130573;23;20013;-84
2022/08/14 02:06:28;;;;;;;21.83;11.25;;;17.80;99.90;;;;;;6130950;23;20426;-84
2022/08/14 02:08:55;;;;;;;14.13;11.15;;;17.80;99.90;;;;;;6131056;23;20009;-84
2022/08/14 02:11:23;;;;;;;18.42;11.95;;;17.80;99.90;;;;;;6131188;23;20010;-84
2022/08/14 02:13:53;;;;;;;17.88;13.10;;;17.80;99.90;;;;;;6130923;23;20013;-84
2022/08/14 02:16:28;;;;;;;14.13;10.70;;;17.90;99.90;;;;;;6155625;23;20430;-84
2022/08/14 02:18:56;;;;;;;12.88;11.05;;;17.80;99.90;;;;;;6130984;23;20057;-84
2022/08/14 02:21:22;;;;;;;13.02;10.93;;;17.70;99.90;;;;;;6155689;23;20016;-84
2022/08/14 02:23:50;;;;;;;12.70;11.07;;;17.70;99.90;;;;;;6130949;23;20001;-84
2022/08/14 02:26:20;;;;;;;12.80;11.20;;;17.80;99.90;;;;;;6131425;23;20006;-84
2022/08/14 02:28:49;;;;;;;13.43;11.43;;;17.80;99.90;;;;;;6131327;23;20010;-84
2022/08/14 02:31:14;;;;;;;12.82;11.10;;;17.70;99.90;;;;;;6131104;23;20052;-84
2022/08/14 02:33:41;;;;;;;15.75;11.25;;;17.60;99.90;;;;;;6156958;23;20005;-84
2022/08/14 02:36:08;;;;;;;19.70;12.13;;;17.60;99.90;;;;;;6131063;23;20013;-84
2022/08/14 02:38:34;;;;;;;12.88;11.50;;;17.60;99.90;;;;;;6155004;23;20726;-84
2022/08/14 02:41:00;;;;;;;17.23;11.52;;;17.50;99.90;;;;;;6154496;23;20045;-84
2022/08/14 02:43:29;;;;;;;19.38;12.30;;;17.50;99.90;;;;;;6130203;23;20053;-84
2022/08/14 02:45:55;;;;;;;15.35;11.73;;;17.60;99.90;;;;;;6130343;23;20010;-84
2022/08/14 02:48:21;;;;;;;12.77;11.38;;;17.40;99.90;;;;;;6155172;23;20028;-84
2022/08/14 02:50:48;;;;;;;15.13;11.60;;;17.40;99.90;;;;;;6130481;23;20017;-84
2022/08/14 02:53:14;;;;;;;15.60;11.48;;;17.40;99.90;;;;;;6154626;23;20009;-84
2022/08/14 02:55:42;;;;;;;18.92;12.93;;;17.30;99.90;;;;;;6130460;23;20426;-84
2022/08/14 02:58:08;;;;;;;13.75;11.68;;;17.20;99.90;;;;;;6155411;23;20005;-84
2022/08/14 03:00:34;;;;;;;16.20;12.43;;;17.10;99.90;;;;;;6130407;23;19998;-84
2022/08/14 03:03:01;;;;;;;14.57;11.80;;;17.10;99.90;;;;;;6130278;23;20096;-84
2022/08/14 03:05:31;;;;;;;16.40;12.95;;;17.10;99.90;;;;;;6156263;23;20481;-84
2022/08/14 03:08:12;;;;;;;14.27;11.60;;;17.00;99.90;;;;;;6130266;23;20002;-84
2022/08/14 03:10:38;;;;;;;;;;;17.00;99.90;;;;;;6130890;23;20418;-84
2022/08/14 03:13:05;;;;;;;14.25;11.73;;;16.90;99.90;;;;;;6130416;23;19904;-84
2022/08/14 03:15:33;;;;;;;16.73;12.45;;;16.80;99.90;;;;;;6154766;23;20013;-84
2022/08/14 03:17:59;;;;;;;16.55;12.38;;;16.80;99.90;;;;;;6155347;23;20013;-84
2022/08/14 03:20:28;;;;;;;14.98;13.00;;;16.80;99.90;;;;;;6130937;23;20013;-84
2022/08/14 03:22:58;;;;;;;17.55;13.02;;;16.60;99.90;;;;;;6154936;23;20020;-84
2022/08/14 03:25:24;;;;;;;16.58;12.93;;;16.60;99.90;;;;;;6155481;23;20415;-84
2022/08/14 03:27:50;;;;;;;16.58;13.07;;;16.60;99.90;;;;;;6130975;23;20005;-84
2022/08/14 03:30:15;;;;;;;14.88;13.13;;;16.50;99.90;;;;;;6130625;23;20041;-85
2022/08/14 03:32:42;;;;;;;16.23;12.35;;;16.50;99.90;;;;;;6154971;23;20013;-84
2022/08/14 03:35:10;;;;;;;15.50;13.07;;;16.50;99.90;;;;;;6130058;23;20009;-84
2022/08/14 03:37:36;;;;;;;15.70;14.02;;;16.50;99.90;;;;;;6155179;23;20020;-84
2022/08/14 03:40:03;;;;;;;19.67;14.52;;;16.50;99.90;;;;;;6130026;23;20013;-84
2022/08/14 03:42:29;;;;;;;19.63;13.07;;;16.40;99.90;;;;;;6154605;23;20014;-84
2022/08/14 03:44:56;;;;;;;20.98;14.30;;;16.40;99.90;;;;;;6129884;23;20708;-83
2022/08/14 03:47:22;;;;;;;20.05;14.25;;;16.30;99.90;;;;;;6154353;23;20005;-84
2022/08/14 03:49:47;;;;;;;18.85;14.90;;;16.30;99.90;;;;;;6130278;23;20446;-84
2022/08/14 03:52:13;;;;;;;15.73;13.30;;;16.20;99.90;;;;;;6130369;23;20664;-84
2022/08/14 03:54:39;;;;;;;17.58;14.05;;;16.20;99.90;;;;;;6129959;23;20009;-84
2022/08/14 03:57:05;;;;;;;17.33;14.60;;;16.20;99.90;;;;;;6130025;23;20473;-84
2022/08/14 03:59:31;;;;;;;18.10;13.55;;;16.20;99.90;;;;;;6154448;23;20013;-84
2022/08/14 04:01:57;;;;;;;16.95;14.60;;;16.20;99.90;;;;;;6129186;23;20051;-84
2022/08/14 04:04:23;;;;;;;19.30;14.82;;;16.20;99.90;;;;;;6129463;23;20005;-84
2022/08/14 04:06:50;;;;;;;15.40;13.25;;;16.20;99.90;;;;;;6129736;23;20621;-84
2022/08/14 04:09:16;;;;;;;16.75;13.10;;;16.10;99.90;;;;;;6154498;23;20001;-84
2022/08/14 04:11:42;;;;;;;16.35;13.73;;;16.00;99.90;;;;;;6156077;23;20055;-83
2022/08/14 04:14:08;;;;;;;19.13;14.02;;;15.90;99.90;;;;;;6154565;23;20470;-83
2022/08/14 04:16:34;;;;;;;21.63;14.23;;;15.90;99.90;;;;;;6154462;23;20068;-83
2022/08/14 04:19:03;;;;;;;17.00;13.40;;;15.80;99.90;;;;;;6154190;23;20013;-84
2022/08/14 04:21:29;;;;;;;18.50;13.70;;;15.80;99.90;;;;;;6129658;23;20017;-83
2022/08/14 04:23:57;;;;;;;16.95;13.80;;;15.70;99.90;;;;;;6129498;23;20005;-83
2022/08/14 04:26:26;;;;;;;20.25;13.32;;;15.70;99.90;;;;;;6154680;23;20009;-83
2022/08/14 04:28:53;;;;;;;17.60;13.60;;;15.70;99.90;;;;;;6129642;23;20006;-83
2022/08/14 04:31:20;;;;;;;15.85;13.20;;;15.80;99.90;;;;;;6129630;23;20014;-83
2022/08/14 04:33:47;;;;;;;16.65;13.20;;;15.90;99.90;;;;;;6153998;23;20044;-83
2022/08/14 04:36:13;;;;;;;14.98;13.05;;;16.00;99.90;;;;;;6154259;23;20020;-83
2022/08/14 04:44:19;;;;;;;15.52;13.52;;;16.10;99.90;;;;;;6076794;23;20017;-83
2022/08/14 04:49:29;;;;;;;14.13;11.70;;;16.10;99.90;;;;;;6153800;23;20017;-83
2022/08/14 04:51:55;;;;;;;15.82;12.25;;;16.10;99.90;;;;;;6129363;23;20323;-83
2022/08/14 04:54:25;;;;;;;15.43;12.27;;;16.10;99.90;;;;;;6153495;23;20016;-83
2022/08/14 04:56:53;;;;;;;14.52;12.93;;;16.10;99.90;;;;;;6153092;23;20087;-84
2022/08/14 04:59:20;;;;;;;16.90;13.73;;;16.10;99.90;;;;;;6129112;23;20012;-83
2022/08/14 05:01:45;;;;;;;21.77;14.23;;;16.10;99.90;;;;;;6129074;23;20020;-83
2022/08/14 05:04:11;;;;;;;17.02;13.93;;;16.10;99.90;;;;;;6128862;23;20544;-83
2022/08/14 05:06:38;;;;;;;21.23;13.57;;;16.20;99.90;;;;;;6153670;23;20005;-83
2022/08/14 05:09:05;;;;;;;17.55;14.55;;;16.20;99.90;;;;;;6129201;23;20010;-83
2022/08/14 05:11:32;;;;;;;19.02;14.05;;;16.20;99.90;;;;;;6153911;23;20041;-83
2022/08/14 05:14:00;;;;;;;18.75;13.85;;;16.30;99.90;;;;;;6129050;23;20009;-83
2022/08/14 05:16:30;;;;;;;15.95;13.48;;;16.30;99.90;;;;;;6129378;23;20010;-83
2022/08/14 05:18:57;;;;;;;17.83;15.43;;;16.30;99.90;;;;;;6129189;23;20005;-84
2022/08/14 05:21:23;;;;;;;22.50;17.33;;;16.40;99.90;;;;;;6153788;23;20442;-83
2022/08/14 05:23:50;;;;;;;22.48;15.13;;;16.40;99.90;;;;;;6129243;23;20084;-83
2022/08/14 05:26:16;;;;;;;16.98;13.88;;;16.40;99.90;;;;;;6154446;23;20065;-83
2022/08/14 05:28:44;;;;;;;16.30;13.98;;;16.40;99.90;;;;;;6129632;23;20040;-84
2022/08/14 05:31:13;;;;;;;14.88;13.27;;;16.50;99.90;;;;;;6130737;23;20578;-83
2022/08/14 05:33:39;;;;;;;17.58;15.02;;;16.50;99.90;;;;;;6130957;23;20002;-83
2022/08/14 05:36:07;;;;;;;18.83;13.32;;;16.60;99.90;;;;;;6131280;23;20013;-84
2022/08/14 05:38:35;;;;;;;17.13;13.05;;;16.80;99.90;;;;;;6131135;23;20009;-83
2022/08/14 05:41:07;;;;;;;17.10;10.98;;;16.90;99.90;;;;;;6130695;23;20059;-83
2022/08/14 05:43:33;;;;;;;13.63;11.52;;;17.00;99.90;;;;;;6130540;23;20009;-83
2022/08/14 05:46:00;;;;;;;12.25;10.57;;;17.20;99.90;;;;;;6131031;23;20084;-83
2022/08/14 05:48:27;;;;;;;15.85;11.90;;;17.30;99.90;;;;;;6130963;23;20009;-83
2022/08/14 05:50:54;;;;;;;17.45;10.80;;;17.40;99.90;;;;;;6131124;23;20001;-83
2022/08/14 05:53:25;;;;;;;16.17;10.10;;;17.50;99.90;;;;;;6131223;23;20020;-84
2022/08/14 05:55:51;;;;;;;14.52;10.75;;;17.70;99.90;;;;;;6131350;23;20442;-83
2022/08/14 05:58:18;;;;;;;14.82;10.00;;;17.90;99.90;;;;;;6157317;23;20029;-83
2022/08/14 06:00:45;;;;;;;11.35;8.90;;;18.10;99.90;;;;;;6155788;23;20001;-83
2022/08/14 06:03:15;;;;;;;12.25;9.23;;;18.20;99.90;;;;;;6130019;23;20407;-84
2022/08/14 06:05:42;;;;;;;11.85;9.40;;;18.40;99.90;;;;;;6130734;23;20043;-84
2022/08/14 06:08:26;;;;;;;13.95;9.45;;;18.60;99.90;;;;;;6130992;23;20055;-83
2022/08/14 06:10:54;;;;;;;9.93;8.88;;;18.70;99.90;;;;;;6130989;23;20013;-83
2022/08/14 06:13:20;;;;;;;10.90;8.75;;;18.80;99.90;;;;;;6154811;23;20017;-84
2022/08/14 06:15:47;;;;;;;12.18;9.10;;;18.90;99.90;;;;;;6130769;23;20057;-84
2022/08/14 06:18:16;;;;;;;13.82;9.18;;;19.10;99.90;;;;;;6155711;23;20009;-84
2022/08/14 06:20:42;;;;;;;9.65;8.65;;;19.20;99.90;;;;;;6130964;23;20092;-83
2022/08/14 06:23:07;;;;;;;12.02;8.50;;;19.40;99.90;;;;;;6128780;23;20041;-83
2022/08/14 06:25:33;;;;;;;11.80;7.93;;;19.50;99.90;;;;;;6155310;23;20005;-83
2022/08/14 06:27:59;;;;;;;11.90;8.48;;;19.70;99.90;;;;;;6130874;23;20009;-83
2022/08/14 06:30:29;;;;;;;11.80;8.60;;;19.90;99.90;;;;;;6130756;23;20040;-83
2022/08/14 06:32:55;;;;;;;9.90;8.07;;;20.00;99.90;;;;;;6130419;23;20025;-84
2022/08/14 06:35:21;;;;;;;9.60;7.95;;;20.10;99.90;;;;;;6154810;23;20360;-84
2022/08/14 06:37:52;;;;;;;8.25;7.43;;;20.20;99.90;;;;;;6130515;23;20010;-84
2022/08/14 06:40:21;;;;;;;11.80;7.65;;;20.40;99.90;;;;;;6129346;23;20093;-84
2022/08/14 06:42:47;;;;;;;9.88;7.10;;;20.50;99.90;;;;;;6130085;23;20014;-84
2022/08/14 06:45:13;;;;;;;8.50;7.35;;;20.60;99.90;;;;;;6130506;23;20589;-84
2022/08/14 06:47:41;;;;;;;10.20;7.07;;;20.70;99.90;;;;;;6130130;23;20018;-83
2022/08/14 06:50:09;;;;;;;8.68;6.70;;;20.80;99.90;;;;;;6130256;23;20050;-84
2022/08/14 06:52:36;;;;;;;10.05;7.82;;;21.00;99.90;;;;;;6130316;23;20379;-83
2022/08/14 06:55:03;;;;;;;9.68;6.97;;;21.10;99.90;;;;;;6130351;23;20017;-84
2022/08/14 06:57:40;;;;;;;11.07;7.30;;;21.10;99.90;;;;;;6130634;23;20005;-84
2022/08/14 07:00:09;;;;;;;11.50;7.88;;;21.20;99.90;;;;;;6130215;23;20376;-83
2022/08/14 07:08:05;;;;;;;12.98;7.25;;;21.50;99.90;;;;;;6154799;23;20064;-83
2022/08/14 07:10:32;;;;;;;8.77;7.55;;;21.60;99.90;;;;;;6156589;23;20006;-84
2022/08/14 07:12:58;;;;;;;10.52;7.88;;;21.70;99.90;;;;;;6130307;23;20021;-84
2022/08/14 07:15:24;;;;;;;7.88;6.93;;;21.80;99.90;;;;;;6156753;23;20010;-83
2022/08/14 07:17:50;;;;;;;9.48;6.82;;;21.90;99.90;;;;;;6130009;23;20009;-83
2022/08/14 07:20:19;;;;;;;10.05;7.60;;;22.00;99.90;;;;;;6153781;23;20092;-84
2022/08/14 07:22:46;;;;;;;9.63;7.45;;;22.10;99.90;;;;;;6132294;23;20543;-84
2022/08/14 07:25:12;;;;;;;11.55;7.07;;;22.10;99.90;;;;;;6129682;23;20489;-84
2022/08/14 07:27:39;;;;;;;7.45;6.57;;;22.20;99.90;;;;;;6156615;23;20009;-84
2022/08/14 07:30:05;;;;;;;8.73;6.50;;;22.30;99.90;;;;;;6130426;23;20005;-84
2022/08/14 07:32:31;;;;;;;8.75;6.70;;;22.40;99.90;;;;;;6156330;23;20016;-84
2022/08/14 07:34:57;;;;;;;11.38;7.03;;;22.40;99.90;;;;;;6129918;23;20010;-85
2022/08/14 07:37:23;;;;;;;7.07;6.38;;;22.50;99.90;;;;;;6130072;23;20341;-84
2022/08/14 07:39:50;;;;;;;9.13;6.50;;;22.50;99.90;;;;;;6154602;23;20371;-84
2022/08/14 07:42:16;;;;;;;11.93;5.80;;;22.70;99.90;;;;;;6129683;23;20096;-84
2022/08/14 07:44:41;;;;;;;10.15;5.38;;;22.70;99.90;;;;;;6129379;23;20084;-84
2022/08/14 07:47:07;;;;;;;9.55;6.07;;;22.80;99.90;;;;;;6154288;23;20014;-84
2022/08/14 07:49:33;;;;;;;6.82;5.22;;;22.90;99.90;;;;;;6130148;23;20068;-84
2022/08/14 07:52:00;;;;;;;8.48;5.45;;;23.00;99.90;;;;;;6129330;23;20017;-83
2022/08/14 07:54:26;;;;;;;7.30;5.80;;;23.10;99.90;;;;;;6129058;23;20005;-84
2022/08/14 07:56:52;;;;;;;8.88;5.50;;;23.20;99.90;;;;;;6154215;23;20101;-84
2022/08/14 07:59:20;;;;;;;8.27;5.20;;;23.30;99.90;;;;;;6129946;23;20096;-83
2022/08/14 08:01:47;;;;;;;6.97;5.40;;;23.40;99.90;;;;;;6154610;23;20056;-83
2022/08/14 08:04:14;;;;;;;5.97;5.13;;;23.50;99.90;;;;;;6129575;23;20001;-84
2022/08/14 08:06:40;;;;;;;11.05;6.50;;;23.50;99.90;;;;;;6129735;23;20001;-83
2022/08/14 08:09:07;;;;;;;8.18;5.60;;;23.50;99.90;;;;;;6154080;23;20423;-83
2022/08/14 08:11:35;;;;;;;6.78;5.15;;;23.50;99.90;;;;;;6153972;23;20434;-83
2022/08/14 08:14:07;;;;;;;9.73;6.18;;;23.60;99.90;;;;;;6129566;23;20014;-84
2022/08/14 08:16:35;;;;;;;8.73;6.45;;;23.60;99.90;;;;;;6129977;23;20013;-84
2022/08/14 08:19:01;;;;;;;6.43;5.82;;;23.70;99.90;;;;;;6129795;23;20044;-84
2022/08/14 08:21:26;;;;;;;7.63;6.80;;;23.80;99.90;;;;;;6154360;23;20326;-84
2022/08/14 08:23:53;;;;;;;5.00;4.50;;;23.90;99.90;;;;;;6129572;23;20009;-84
2022/08/14 08:26:19;;;;;;;6.70;5.70;;;23.90;99.90;;;;;;6153789;23;20009;-84
2022/08/14 08:28:55;;;;;;;7.72;5.65;;;23.90;99.90;;;;;;6154278;23;20002;-84
2022/08/14 08:31:21;;;;;;;6.85;4.80;;;24.10;99.90;;;;;;6129764;23;20045;-84
2022/08/14 08:33:51;;;;;;;4.95;4.20;;;24.20;99.90;;;;;;6154235;23;20002;-84
2022/08/14 08:36:17;;;;;;;6.65;5.10;;;24.40;98.70;;;;;;6155885;23;20089;-84
2022/08/14 08:38:46;;;;;;;5.38;4.88;;;24.60;97.70;;;;;;6154460;23;20001;-83
2022/08/14 08:41:12;;;;;;;4.82;4.32;;;24.60;97.80;;;;;;6130165;23;20033;-83
2022/08/14 08:43:38;;;;;;;6.60;4.70;;;24.70;96.60;;;;;;6154384;23;20030;-84
2022/08/14 08:46:09;;;;;;;8.18;4.90;;;25.30;96.40;;;;;;6154649;23;20787;-84
2022/08/14 08:48:44;;;;;;;4.80;4.30;;;26.30;96.00;;;;;;6154512;23;20005;-84
2022/08/14 08:51:24;;;;;;;5.47;3.90;;;27.80;93.70;;;;;;6129548;23;20044;-83
2022/08/14 08:53:56;;;;;;;6.22;4.05;;;28.50;90.90;;;;;;6129512;23;20010;-84
2022/08/14 08:56:42;;;;;;;7.60;4.25;;;29.20;87.90;;;;;;6129968;23;20104;-84
2022/08/14 08:59:24;;;;;;;6.40;3.80;;;29.40;84.40;;;;;;6154184;23;20426;-84
2022/08/14 09:02:24;;;;;;;4.43;3.55;;;30.10;80.70;;;;;;6129148;23;20010;-84
2022/08/14 09:04:49;;;;;;;6.70;3.80;;;30.30;76.20;;;;;;6129458;23;20467;-84
2022/08/14 09:07:17;;;;;;;6.10;3.67;;;31.00;73.40;;;;;;6129361;23;20029;-84
2022/08/14 09:09:52;;;;;;;5.57;3.90;;;31.70;70.60;;;;;;6129444;23;20017;-84
2022/08/14 09:12:18;;;;;;;7.97;2.65;;;31.80;69.60;;;;;;6154059;23;20060;-83
2022/08/14 09:14:47;;;;;;;4.38;2.65;;;32.20;61.60;;;;;;6129263;23;20014;-84
2022/08/14 09:17:14;;;;;;;6.13;3.50;;;31.60;58.10;;;;;;6154759;23;20053;-84
2022/08/14 09:19:40;;;;;;;3.78;2.97;;;32.10;62.50;;;;;;6129750;23;20001;-84
2022/08/14 09:22:06;;;;;;;7.65;2.97;;;33.00;61.30;;;;;;6129560;23;20459;-84
2022/08/14 09:24:32;;;;;;;6.50;3.03;;;33.60;57.80;;;;;;6129465;23;20002;-84
2022/08/14 09:26:58;;;;;;;4.22;3.05;;;32.50;55.70;;;;;;6129285;23;20092;-84
2022/08/14 09:29:24;;;;;;;3.13;2.83;;;32.50;56.30;;;;;;6126692;23;20012;-84
2022/08/14 09:31:56;;;;;;;6.18;3.15;;;33.00;55.80;;;;;;6129245;23;20012;-84
2022/08/14 09:35:02;;;;;;;4.32;2.90;;;33.20;54.80;;;;;;6128336;23;20010;-84
2022/08/14 09:37:51;;;;;;;5.40;3.05;;;32.60;55.60;;;;;;6128790;23;20033;-84
2022/08/14 09:40:23;;;;;;;6.72;2.90;;;33.40;55.30;;;;;;6154360;23;20010;-85
2022/08/14 09:43:17;;;;;;;4.13;3.25;;;32.40;55.30;;;;;;6128881;23;20068;-84
2022/08/14 09:45:48;;;;;;;6.15;3.28;;;32.90;55.00;;;;;;6153756;23;20068;-85
2022/08/14 09:48:19;;;;;;;3.25;2.95;;;33.00;55.00;;;;;;6154489;23;20319;-85
2022/08/14 09:50:50;;;;;;;7.13;3.58;;;32.70;55.60;;;;;;6153914;23;20430;-85
2022/08/14 09:53:41;;;;;;;4.30;3.45;;;32.70;54.90;;;;;;6128626;23;20018;-84
2022/08/14 09:56:08;;;;;;;3.42;3.13;;;32.60;54.80;;;;;;6116114;23;20013;-84
2022/08/14 09:58:39;;;;;;;6.55;3.80;;;32.60;55.30;;;;;;6129160;23;20006;-84
2022/08/14 10:01:17;;;;;;;6.97;3.70;;;32.30;55.80;;;;;;6129385;23;20452;-84
2022/08/14 10:03:49;;;;;;;4.78;3.60;;;31.90;56.00;;;;;;6153045;23;20040;-84
2022/08/14 10:06:17;;;;;;;4.03;3.72;;;31.60;56.40;;;;;;6128073;23;20025;-84
2022/08/14 10:08:46;;;;;;;8.43;3.92;;;31.30;57.10;;;;;;6128667;23;20434;-85
2022/08/14 10:11:18;;;;;;;4.45;3.92;;;31.10;56.60;;;;;;6153171;23;20017;-84
2022/08/14 10:13:46;;;;;;;6.88;3.50;;;31.10;57.30;;;;;;6127986;23;20016;-84
2022/08/14 10:16:13;;;;;;;6.38;3.80;;;30.70;57.60;;;;;;6156214;23;20009;-84
2022/08/14 10:18:39;;;;;;;4.10;3.70;;;30.70;57.90;;;;;;6131054;23;20020;-84
2022/08/14 10:21:08;;;;;;;5.18;3.95;;;30.90;57.70;;;;;;6155679;23;20425;-84
2022/08/14 10:23:48;;;;;;;6.00;3.75;;;31.10;57.50;;;;;;6156511;23;20005;-84
2022/08/14 10:26:17;;;;;;;4.70;4.00;;;31.50;57.30;;;;;;6130694;23;20016;-84
2022/08/14 10:28:48;;;;;;;8.38;4.18;;;31.40;57.70;;;;;;6130733;23;20674;-84
2022/08/14 10:31:32;;;;;;;4.15;3.80;;;31.20;57.60;;;;;;6130309;23;20010;-83
2022/08/14 10:34:06;;;;;;;7.07;3.33;;;31.00;57.70;;;;;;6130592;23;20014;-84
2022/08/14 10:36:38;;;;;;;5.95;4.53;;;31.20;57.60;;;;;;6130863;23;20017;-84
2022/08/14 10:39:16;;;;;;;3.95;3.55;;;31.30;58.10;;;;;;6154906;23;20010;-84
2022/08/14 10:41:43;;;;;;;5.05;3.38;;;31.70;57.00;;;;;;6155348;23;20024;-84
2022/08/14 10:44:13;;;;;;;7.78;3.83;;;32.20;55.70;;;;;;6154877;23;20001;-84
2022/08/14 10:46:41;;;;;;;10.38;3.88;;;32.40;55.80;;;;;;6130410;23;20335;-85
2022/08/14 10:49:19;;;;;;;10.38;4.13;;;32.20;56.70;;;;;;6130139;23;20132;-84
2022/08/14 10:52:05;;;;;;;9.00;3.83;;;31.90;56.80;;;;;;6154086;23;20446;-85
2022/08/14 10:54:40;;;;;;;4.57;4.05;;;32.10;56.70;;;;;;6129922;23;20013;-84
2022/08/14 10:57:13;;;;;;;4.28;3.88;;;32.30;56.40;;;;;;6129760;23;20040;-84
2022/08/14 10:59:55;;;;;;;6.20;4.20;;;32.20;56.60;;;;;;6130419;23;20016;-84
2022/08/14 11:02:36;;;;;;;6.63;4.20;;;31.90;57.30;;;;;;6154508;23;20009;-85
2022/08/14 11:05:06;;;;;;;6.28;4.15;;;31.60;57.20;;;;;;6130198;23;20445;-83
2022/08/14 11:07:38;;;;;;;5.75;4.28;;;31.80;57.00;;;;;;6131071;23;20001;-84
2022/08/14 11:10:13;;;;;;;5.38;4.88;;;31.00;57.60;;;;;;6130681;23;20012;-84
2022/08/14 11:12:46;;;;;;;8.25;4.10;;;30.70;58.70;;;;;;6155078;23;20009;-84
2022/08/14 11:15:17;;;;;;;5.00;4.50;;;31.30;58.70;;;;;;6154884;23;20436;-84
2022/08/14 11:17:46;;;;;;;6.95;4.35;;;31.80;57.50;;;;;;6154648;23;20061;-85
2022/08/14 11:20:13;;;;;;;5.18;4.38;;;32.30;57.20;;;;;;6154752;23;20006;-84
2022/08/14 11:22:42;;;;;;;6.97;4.43;;;32.60;57.00;;;;;;6130045;23;20018;-85
2022/08/14 11:25:12;;;;;;;7.18;4.13;;;32.80;56.00;;;;;;6129076;23;20402;-86
2022/08/14 11:27:43;;;;;;;6.22;3.95;;;33.00;56.10;;;;;;6130097;23;20005;-85
2022/08/14 11:30:12;;;;;;;6.75;4.20;;;32.80;56.50;;;;;;6155042;23;20748;-84
2022/08/14 11:32:41;;;;;;;9.98;3.95;;;33.50;56.60;;;;;;6130746;23;20009;-84
2022/08/14 11:35:14;;;;;;;4.32;4.03;;;33.70;55.50;;;;;;6154647;23;20434;-84
2022/08/14 11:37:55;;;;;;;8.02;4.63;;;33.40;55.70;;;;;;6130439;23;20021;-85
2022/08/14 11:40:23;;;;;;;4.70;4.25;;;33.70;55.20;;;;;;6154808;23;20025;-84
2022/08/14 11:42:54;;;;;;;4.43;4.03;;;33.20;55.20;;;;;;6154899;23;20013;-84
2022/08/14 11:45:21;;;;;;;5.00;4.00;;;33.00;55.00;;;;;;6130034;23;20434;-84
2022/08/14 11:47:47;;;;;;;4.82;4.43;;;33.00;55.20;;;;;;6130153;23;20044;-85
2022/08/14 11:50:16;;;;;;;5.10;4.40;;;33.40;55.10;;;;;;6130521;23;20005;-84
2022/08/14 11:52:43;;;;;;;4.40;3.58;;;33.10;54.90;;;;;;6130168;23;20016;-84
2022/08/14 11:55:11;;;;;;;6.07;3.90;;;33.10;55.10;;;;;;6130167;23;20362;-84
2022/08/14 11:57:38;;;;;;;4.43;4.00;;;32.90;54.10;;;;;;6129330;23;20377;-84
2022/08/14 12:00:15;;;;;;;6.07;4.20;;;32.90;53.80;;;;;;6130000;23;20036;-84
2022/08/14 12:02:52;;;;;;;6.05;4.05;;;32.80;52.70;;;;;;6129842;23;20018;-84
2022/08/14 12:05:34;;;;;;;9.90;4.43;;;33.00;51.80;;;;;;6154195;23;20006;-84
2022/08/14 12:08:01;;;;;;;4.47;4.07;;;33.10;52.10;;;;;;6154550;23;20005;-83
2022/08/14 12:10:32;;;;;;;8.57;3.97;;;32.50;53.00;;;;;;6129913;23;20477;-84
2022/08/14 12:12:57;;;;;;;10.70;4.60;;;32.40;53.10;;;;;;6154444;23;20073;-84
2022/08/14 12:15:32;;;;;;;4.65;4.22;;;32.50;52.30;;;;;;6129857;23;20036;-84
2022/08/14 12:17:59;;;;;;;5.47;3.88;;;32.40;52.80;;;;;;6129994;23;20335;-84
2022/08/14 12:20:36;;;;;;;5.63;4.40;;;32.30;53.10;;;;;;6130045;23;20382;-84
2022/08/14 12:23:04;;;;;;;4.10;3.70;;;32.50;53.70;;;;;;6129826;23;20013;-84
2022/08/14 12:25:30;;;;;;;5.00;4.45;;;32.20;54.30;;;;;;6129882;23;20039;-84
2022/08/14 12:28:00;;;;;;;5.20;3.90;;;31.80;53.40;;;;;;6154626;23;20056;-84
2022/08/14 12:30:41;;;;;;;6.93;4.05;;;31.90;53.50;;;;;;6129062;23;20010;-84
2022/08/14 12:33:31;;;;;;;7.60;4.35;;;32.00;53.30;;;;;;6154561;23;20010;-84
2022/08/14 12:36:03;;;;;;;6.68;3.75;;;32.10;53.60;;;;;;6154457;23;20009;-84
2022/08/14 12:38:32;;;;;;;8.35;4.50;;;31.90;54.20;;;;;;6154855;23;20442;-84
2022/08/14 12:40:58;;;;;;;7.05;4.55;;;32.00;53.60;;;;;;6130220;23;20561;-84
2022/08/14 12:43:23;;;;;;;4.50;4.10;;;31.60;54.60;;;;;;6129575;23;20059;-84
2022/08/14 12:45:53;;;;;;;4.47;4.07;;;31.50;53.80;;;;;;6154443;23;20382;-85
2022/08/14 12:48:22;;;;;;;5.50;3.60;;;32.00;54.00;;;;;;6129679;23;20013;-85
2022/08/14 12:50:50;;;;;;;4.30;3.90;;;32.60;53.30;;;;;;6129800;23;20748;-84
2022/08/14 12:53:17;;;;;;;6.43;4.18;;;32.70;51.80;;;;;;6128918;23;20116;-85
2022/08/14 12:55:44;;;;;;;4.30;3.90;;;32.60;52.20;;;;;;6154308;23;20010;-84
2022/08/14 12:58:10;;;;;;;4.88;4.10;;;33.00;51.60;;;;;;6129710;23;20014;-85
2022/08/14 13:00:47;;;;;;;3.97;3.63;;;33.20;51.50;;;;;;6153875;23;20009;-84
2022/08/14 13:03:26;;;;;;;8.35;3.70;;;33.30;51.00;;;;;;6152744;23;20009;-85